sensor_id;sensor_type;location;lat;lon;timestamp;temperature;humidity
35559;DHT22;21661;50.794;-1.066;2023-06-19T00:01:58;16.90;99.90
35559;DHT22;21661;50.794;-1.066;2023-06-19T00:04:24;16.90;99.90
35559;DHT22;21661;50.794;-1.066;2023-06-19T00:06:49;16.90;99.90
35559;DHT22;21661;50.794;-1.066;2023-06-19T00:09:15;16.80;99.90
35559;DHT22;21661;50.794;-1.066;2023-06-19T00:11:40;16.80;99.90
35559;DHT22;21661;50.794;-1.066;2023-06-19T00:14:06;16.90;99.90
35559;DHT22;21661;50.794;-1.066;2023-06-19T00:16:32;16.90;99.90
35559;DHT22;21661;50.794;-1.066;2023-06-19T00:18:58;16.80;99.90
35559;DHT22;21661;50.794;-1.066;2023-06-19T00:21:24;16.90;99.90
35559;DHT22;21661;50.794;-1.066;2023-06-19T00:23:51;16.90;99.90
35559;DHT22;21661;50.794;-1.066;2023-06-19T00:26:16;16.80;99.90
35559;DHT22;21661;50.794;-1.066;2023-06-19T00:28:42;16.90;99.90
35559;DHT22;21661;50.794;-1.066;2023-06-19T00:31:10;16.90;99.90
35559;DHT22;21661;50.794;-1.066;2023-06-19T00:33:39;16.90;99.90
35559;DHT22;21661;50.794;-1.066;2023-06-19T00:36:09;17.00;99.90
35559;DHT22;21661;50.794;-1.066;2023-06-19T00:38:35;16.90;99.90
35559;DHT22;21661;50.794;-1.066;2023-06-19T00:41:01;16.90;99.90
35559;DHT22;21661;50.794;-1.066;2023-06-19T00:43:26;16.90;99.90
35559;DHT22;21661;50.794;-1.066;2023-06-19T00:45:52;16.90;99.90
35559;DHT22;21661;50.794;-1.066;2023-06-19T00:48:18;16.80;99.90
35559;DHT22;21661;50.794;-1.066;2023-06-19T00:50:43;16.80;99.90
35559;DHT22;21661;50.794;-1.066;2023-06-19T00:53:09;16.80;99.90
35559;DHT22;21661;50.794;-1.066;2023-06-19T00:55:36;16.80;99.90
35559;DHT22;21661;50.794;-1.066;2023-06-19T00:58:02;16.80;99.90
35559;DHT22;21661;50.794;-1.066;2023-06-19T01:00:28;16.80;99.90
35559;DHT22;21661;50.794;-1.066;2023-06-19T01:02:54;16.80;99.90
35559;DHT22;21661;50.794;-1.066;2023-06-19T01:05:19;16.80;99.90
35559;DHT22;21661;50.794;-1.066;2023-06-19T01:08:41;16.80;99.90
35559;DHT22;21661;50.794;-1.066;2023-06-19T01:10:58;16.80;99.90
35559;DHT22;21661;50.794;-1.066;2023-06-19T01:13:31;16.80;99.90
35559;DHT22;21661;50.794;-1.066;2023-06-19T01:15:59;16.80;99.90
35559;DHT22;21661;50.794;-1.066;2023-06-19T01:18:27;16.90;99.90
35559;DHT22;21661;50.794;-1.066;2023-06-19T01:20:53;16.90;99.90
35559;DHT22;21661;50.794;-1.066;2023-06-19T01:23:18;16.90;99.90
35559;DHT22;21661;50.794;-1.066;2023-06-19T01:25:44;16.90;99.90
35559;DHT22;21661;50.794;-1.066;2023-06-19T01:28:11;16.90;99.90
35559;DHT22;21661;50.794;-1.066;2023-06-19T01:30:42;16.90;99.90
35559;DHT22;21661;50.794;-1.066;2023-06-19T01:33:23;16.90;99.90
35559;DHT22;21661;50.794;-1.066;2023-06-19T01:35:51;16.80;99.90
35559;DHT22;21661;50.794;-1.066;2023-06-19T01:38:19;16.80;99.90
35559;DHT22;21661;50.794;-1.066;2023-06-19T01:40:48;16.90;99.90
35559;DHT22;21661;50.794;-1.066;2023-06-19T01:43:15;16.80;99.90
35559;DHT22;21661;50.794;-1.066;2023-06-19T01:45:41;16.80;99.90
35559;DHT22;21661;50.794;-1.066;2023-06-19T01:48:08;16.90;99.90
35559;DHT22;21661;50.794;-1.066;2023-06-19T01:50:34;16.80;99.90
35559;DHT22;21661;50.794;-1.066;2023-06-19T01:52:59;16.80;99.90
35559;DHT22;21661;50.794;-1.066;2023-06-19T01:55:25;16.80;99.90
35559;DHT22;21661;50.794;-1.066;2023-06-19T01:57:51;16.80;99.90
35559;DHT22;21661;50.794;-1.066;2023-06-19T02:00:17;16.80;99.90
35559;DHT22;21661;50.794;-1.066;2023-06-19T02:02:43;16.70;99.90
35559;DHT22;21661;50.794;-1.066;2023-06-19T02:05:08;16.70;99.90
35559;DHT22;21661;50.794;-1.066;2023-06-19T02:07:34;16.70;99.90
35559;DHT22;21661;50.794;-1.066;2023-06-19T02:10:00;16.70;99.90
35559;DHT22;21661;50.794;-1.066;2023-06-19T02:12:26;16.70;99.90
35559;DHT22;21661;50.794;-1.066;2023-06-19T02:14:52;16.70;99.90
35559;DHT22;21661;50.794;-1.066;2023-06-19T02:17:17;16.70;99.90
35559;DHT22;21661;50.794;-1.066;2023-06-19T02:19:43;16.70;99.90
35559;DHT22;21661;50.794;-1.066;2023-06-19T02:22:08;16.80;99.90
35559;DHT22;21661;50.794;-1.066;2023-06-19T02:24:34;16.80;99.90
35559;DHT22;21661;50.794;-1.066;2023-06-19T02:27:00;16.80;99.90
35559;DHT22;21661;50.794;-1.066;2023-06-19T02:29:27;16.80;99.90
35559;DHT22;21661;50.794;-1.066;2023-06-19T02:31:55;16.80;99.90
35559;DHT22;21661;50.794;-1.066;2023-06-19T02:34:20;16.70;99.90
35559;DHT22;21661;50.794;-1.066;2023-06-19T02:36:46;16.70;99.90
35559;DHT22;21661;50.794;-1.066;2023-06-19T02:39:12;16.70;99.90
35559;DHT22;21661;50.794;-1.066;2023-06-19T02:41:38;16.70;99.90
35559;DHT22;21661;50.794;-1.066;2023-06-19T02:44:04;16.70;99.90
35559;DHT22;21661;50.794;-1.066;2023-06-19T02:46:29;16.80;99.90
35559;DHT22;21661;50.794;-1.066;2023-06-19T02:48:55;16.70;99.90
35559;DHT22;21661;50.794;-1.066;2023-06-19T02:51:20;16.80;99.90
35559;DHT22;21661;50.794;-1.066;2023-06-19T02:53:46;16.70;99.90
35559;DHT22;21661;50.794;-1.066;2023-06-19T02:56:13;16.70;99.90
35559;DHT22;21661;50.794;-1.066;2023-06-19T02:58:38;16.70;99.90
35559;DHT22;21661;50.794;-1.066;2023-06-19T03:01:04;16.70;99.90
35559;DHT22;21661;50.794;-1.066;2023-06-19T03:03:32;16.70;99.90
35559;DHT22;21661;50.794;-1.066;2023-06-19T03:06:05;16.70;99.90
35559;DHT22;21661;50.794;-1.066;2023-06-19T03:08:35;16.70;99.90
35559;DHT22;21661;50.794;-1.066;2023-06-19T03:11:01;16.60;99.90
35559;DHT22;21661;50.794;-1.066;2023-06-19T03:13:29;16.60;99.90
35559;DHT22;21661;50.794;-1.066;2023-06-19T03:15:56;16.50;99.90
35559;DHT22;21661;50.794;-1.066;2023-06-19T03:18:21;16.60;99.90
35559;DHT22;21661;50.794;-1.066;2023-06-19T03:20:48;16.50;99.90
35559;DHT22;21661;50.794;-1.066;2023-06-19T03:23:13;16.60;99.90
35559;DHT22;21661;50.794;-1.066;2023-06-19T03:25:39;16.60;99.90
35559;DHT22;21661;50.794;-1.066;2023-06-19T03:28:08;16.60;99.90
35559;DHT22;21661;50.794;-1.066;2023-06-19T03:30:33;16.60;99.90
35559;DHT22;21661;50.794;-1.066;2023-06-19T03:32:59;16.60;99.90
35559;DHT22;21661;50.794;-1.066;2023-06-19T03:35:24;16.60;99.90
35559;DHT22;21661;50.794;-1.066;2023-06-19T03:37:50;16.60;99.90
35559;DHT22;21661;50.794;-1.066;2023-06-19T03:40:16;16.60;99.90
35559;DHT22;21661;50.794;-1.066;2023-06-19T03:42:42;16.70;99.90
35559;DHT22;21661;50.794;-1.066;2023-06-19T03:45:08;16.70;99.90
35559;DHT22;21661;50.794;-1.066;2023-06-19T03:47:33;16.70;99.90
35559;DHT22;21661;50.794;-1.066;2023-06-19T03:49:59;16.80;99.90
35559;DHT22;21661;50.794;-1.066;2023-06-19T03:52:24;16.80;99.90
35559;DHT22;21661;50.794;-1.066;2023-06-19T03:54:50;16.90;99.90
35559;DHT22;21661;50.794;-1.066;2023-06-19T03:57:16;16.80;99.90
35559;DHT22;21661;50.794;-1.066;2023-06-19T03:59:41;16.90;99.90
35559;DHT22;21661;50.794;-1.066;2023-06-19T04:02:07;16.90;99.90
35559;DHT22;21661;50.794;-1.066;2023-06-19T04:04:32;16.90;99.90
35559;DHT22;21661;50.794;-1.066;2023-06-19T04:06:58;16.90;99.90
35559;DHT22;21661;50.794;-1.066;2023-06-19T04:09:24;16.90;99.90
35559;DHT22;21661;50.794;-1.066;2023-06-19T04:11:50;16.90;99.90
35559;DHT22;21661;50.794;-1.066;2023-06-19T04:14:16;16.90;99.90
35559;DHT22;21661;50.794;-1.066;2023-06-19T04:16:41;16.80;99.90
35559;DHT22;21661;50.794;-1.066;2023-06-19T04:19:07;16.80;99.90
35559;DHT22;21661;50.794;-1.066;2023-06-19T04:21:32;16.90;99.90
35559;DHT22;21661;50.794;-1.066;2023-06-19T04:23:58;16.90;99.90
35559;DHT22;21661;50.794;-1.066;2023-06-19T04:26:24;16.80;99.90
35559;DHT22;21661;50.794;-1.066;2023-06-19T04:28:50;16.80;99.90
35559;DHT22;21661;50.794;-1.066;2023-06-19T04:31:15;16.80;99.90
35559;DHT22;21661;50.794;-1.066;2023-06-19T04:33:46;16.90;99.90
35559;DHT22;21661;50.794;-1.066;2023-06-19T04:36:12;16.80;99.90
35559;DHT22;21661;50.794;-1.066;2023-06-19T04:38:37;16.90;99.90
35559;DHT22;21661;50.794;-1.066;2023-06-19T04:41:03;16.90;99.90
35559;DHT22;21661;50.794;-1.066;2023-06-19T04:43:29;16.90;99.90
35559;DHT22;21661;50.794;-1.066;2023-06-19T04:45:54;16.90;99.90
35559;DHT22;21661;50.794;-1.066;2023-06-19T04:48:20;16.90;99.90
35559;DHT22;21661;50.794;-1.066;2023-06-19T04:50:50;16.90;99.90
35559;DHT22;21661;50.794;-1.066;2023-06-19T04:53:15;16.90;99.90
35559;DHT22;21661;50.794;-1.066;2023-06-19T04:55:41;16.90;99.90
35559;DHT22;21661;50.794;-1.066;2023-06-19T04:58:07;16.90;99.90
35559;DHT22;21661;50.794;-1.066;2023-06-19T05:00:32;16.90;99.90
35559;DHT22;21661;50.794;-1.066;2023-06-19T05:02:58;16.80;99.90
35559;DHT22;21661;50.794;-1.066;2023-06-19T05:05:29;16.90;99.90
35559;DHT22;21661;50.794;-1.066;2023-06-19T05:07:55;16.90;99.90
35559;DHT22;21661;50.794;-1.066;2023-06-19T05:10:20;16.90;99.90
35559;DHT22;21661;50.794;-1.066;2023-06-19T05:12:46;16.90;99.90
35559;DHT22;21661;50.794;-1.066;2023-06-19T05:15:12;17.00;99.90
35559;DHT22;21661;50.794;-1.066;2023-06-19T05:17:37;16.90;99.90
35559;DHT22;21661;50.794;-1.066;2023-06-19T05:20:05;16.90;99.90
35559;DHT22;21661;50.794;-1.066;2023-06-19T05:22:33;17.00;99.90
35559;DHT22;21661;50.794;-1.066;2023-06-19T05:25:00;17.00;99.90
35559;DHT22;21661;50.794;-1.066;2023-06-19T05:27:25;17.00;99.90
35559;DHT22;21661;50.794;-1.066;2023-06-19T05:29:51;17.00;99.90
35559;DHT22;21661;50.794;-1.066;2023-06-19T05:32:16;17.00;99.90
35559;DHT22;21661;50.794;-1.066;2023-06-19T05:34:42;17.00;99.90
35559;DHT22;21661;50.794;-1.066;2023-06-19T05:37:07;17.10;99.90
35559;DHT22;21661;50.794;-1.066;2023-06-19T05:39:33;17.10;99.90
35559;DHT22;21661;50.794;-1.066;2023-06-19T05:41:59;17.10;99.90
35559;DHT22;21661;50.794;-1.066;2023-06-19T05:44:24;17.10;99.90
35559;DHT22;21661;50.794;-1.066;2023-06-19T05:46:50;17.10;99.90
35559;DHT22;21661;50.794;-1.066;2023-06-19T05:49:15;17.20;99.90
35559;DHT22;21661;50.794;-1.066;2023-06-19T05:51:41;17.20;99.90
35559;DHT22;21661;50.794;-1.066;2023-06-19T05:54:06;17.20;99.90
35559;DHT22;21661;50.794;-1.066;2023-06-19T05:56:33;17.10;99.90
35559;DHT22;21661;50.794;-1.066;2023-06-19T05:59:02;17.20;99.90
35559;DHT22;21661;50.794;-1.066;2023-06-19T06:01:31;17.20;99.90
35559;DHT22;21661;50.794;-1.066;2023-06-19T06:03:57;17.20;99.90
35559;DHT22;21661;50.794;-1.066;2023-06-19T06:06:23;17.20;99.90
35559;DHT22;21661;50.794;-1.066;2023-06-19T06:08:49;17.20;99.90
35559;DHT22;21661;50.794;-1.066;2023-06-19T06:11:16;17.30;99.90
35559;DHT22;21661;50.794;-1.066;2023-06-19T06:13:42;17.30;99.90
35559;DHT22;21661;50.794;-1.066;2023-06-19T06:16:07;17.30;99.90
35559;DHT22;21661;50.794;-1.066;2023-06-19T06:18:33;17.30;99.90
35559;DHT22;21661;50.794;-1.066;2023-06-19T06:20:59;17.40;99.90
35559;DHT22;21661;50.794;-1.066;2023-06-19T06:23:25;17.50;99.90
35559;DHT22;21661;50.794;-1.066;2023-06-19T06:25:50;17.50;99.90
35559;DHT22;21661;50.794;-1.066;2023-06-19T06:28:16;17.50;99.90
35559;DHT22;21661;50.794;-1.066;2023-06-19T06:30:43;17.60;99.90
35559;DHT22;21661;50.794;-1.066;2023-06-19T06:33:08;17.50;99.90
35559;DHT22;21661;50.794;-1.066;2023-06-19T06:35:34;17.50;99.90
35559;DHT22;21661;50.794;-1.066;2023-06-19T06:38:01;17.50;99.90
35559;DHT22;21661;50.794;-1.066;2023-06-19T06:40:27;17.60;99.90
35559;DHT22;21661;50.794;-1.066;2023-06-19T06:42:52;17.50;99.90
35559;DHT22;21661;50.794;-1.066;2023-06-19T06:45:19;17.60;99.90
35559;DHT22;21661;50.794;-1.066;2023-06-19T06:47:45;17.60;99.90
35559;DHT22;21661;50.794;-1.066;2023-06-19T06:50:10;17.60;99.90
35559;DHT22;21661;50.794;-1.066;2023-06-19T06:52:36;17.70;99.90
35559;DHT22;21661;50.794;-1.066;2023-06-19T06:55:03;17.80;99.90
35559;DHT22;21661;50.794;-1.066;2023-06-19T06:57:29;17.80;99.90
35559;DHT22;21661;50.794;-1.066;2023-06-19T06:59:54;17.80;99.90
35559;DHT22;21661;50.794;-1.066;2023-06-19T07:02:20;17.90;99.90
35559;DHT22;21661;50.794;-1.066;2023-06-19T07:04:45;18.00;99.90
35559;DHT22;21661;50.794;-1.066;2023-06-19T07:07:11;18.00;99.90
35559;DHT22;21661;50.794;-1.066;2023-06-19T07:09:37;18.10;99.90
35559;DHT22;21661;50.794;-1.066;2023-06-19T07:12:02;18.20;99.90
35559;DHT22;21661;50.794;-1.066;2023-06-19T07:14:30;18.30;99.90
35559;DHT22;21661;50.794;-1.066;2023-06-19T07:16:56;18.40;99.90
35559;DHT22;21661;50.794;-1.066;2023-06-19T07:19:21;18.50;99.90
35559;DHT22;21661;50.794;-1.066;2023-06-19T07:21:48;18.60;99.90
35559;DHT22;21661;50.794;-1.066;2023-06-19T07:24:15;18.50;99.90
35559;DHT22;21661;50.794;-1.066;2023-06-19T07:26:40;18.60;99.90
35559;DHT22;21661;50.794;-1.066;2023-06-19T07:29:06;18.90;99.90
35559;DHT22;21661;50.794;-1.066;2023-06-19T07:31:31;19.10;99.90
35559;DHT22;21661;50.794;-1.066;2023-06-19T07:33:57;19.10;99.90
35559;DHT22;21661;50.794;-1.066;2023-06-19T07:36:23;19.10;99.90
35559;DHT22;21661;50.794;-1.066;2023-06-19T07:38:48;19.10;99.90
35559;DHT22;21661;50.794;-1.066;2023-06-19T07:41:14;19.20;99.90
35559;DHT22;21661;50.794;-1.066;2023-06-19T07:43:40;19.10;99.90
35559;DHT22;21661;50.794;-1.066;2023-06-19T07:46:05;19.10;99.90
35559;DHT22;21661;50.794;-1.066;2023-06-19T07:48:31;19.10;99.90
35559;DHT22;21661;50.794;-1.066;2023-06-19T07:50:56;19.00;99.90
35559;DHT22;21661;50.794;-1.066;2023-06-19T07:53:22;18.90;99.90
35559;DHT22;21661;50.794;-1.066;2023-06-19T07:55:48;18.80;99.90
35559;DHT22;21661;50.794;-1.066;2023-06-19T07:58:13;18.80;99.90
35559;DHT22;21661;50.794;-1.066;2023-06-19T08:00:39;18.70;99.90
35559;DHT22;21661;50.794;-1.066;2023-06-19T08:03:05;18.80;99.90
35559;DHT22;21661;50.794;-1.066;2023-06-19T08:05:30;18.90;99.90
35559;DHT22;21661;50.794;-1.066;2023-06-19T08:07:58;19.00;99.90
35559;DHT22;21661;50.794;-1.066;2023-06-19T08:10:24;19.00;99.90
35559;DHT22;21661;50.794;-1.066;2023-06-19T08:12:49;19.00;99.90
35559;DHT22;21661;50.794;-1.066;2023-06-19T08:15:15;18.90;99.90
35559;DHT22;21661;50.794;-1.066;2023-06-19T08:17:41;18.90;99.90
35559;DHT22;21661;50.794;-1.066;2023-06-19T08:20:08;19.00;99.90
35559;DHT22;21661;50.794;-1.066;2023-06-19T08:22:34;19.00;99.90
35559;DHT22;21661;50.794;-1.066;2023-06-19T08:24:59;19.10;99.90
35559;DHT22;21661;50.794;-1.066;2023-06-19T08:27:25;19.20;99.90
35559;DHT22;21661;50.794;-1.066;2023-06-19T08:29:50;19.20;99.90
35559;DHT22;21661;50.794;-1.066;2023-06-19T08:32:16;19.20;99.90
35559;DHT22;21661;50.794;-1.066;2023-06-19T08:34:42;19.30;99.90
35559;DHT22;21661;50.794;-1.066;2023-06-19T08:37:08;19.40;99.90
35559;DHT22;21661;50.794;-1.066;2023-06-19T08:39:34;19.30;99.90
35559;DHT22;21661;50.794;-1.066;2023-06-19T08:42:01;19.30;99.90
35559;DHT22;21661;50.794;-1.066;2023-06-19T08:44:27;19.50;99.90
35559;DHT22;21661;50.794;-1.066;2023-06-19T08:46:52;19.60;99.90
35559;DHT22;21661;50.794;-1.066;2023-06-19T08:49:18;19.80;99.90
35559;DHT22;21661;50.794;-1.066;2023-06-19T08:51:43;19.90;99.90
35559;DHT22;21661;50.794;-1.066;2023-06-19T08:54:09;20.10;99.90
35559;DHT22;21661;50.794;-1.066;2023-06-19T08:56:35;20.10;99.90
35559;DHT22;21661;50.794;-1.066;2023-06-19T09:01:36;20.00;99.90
35559;DHT22;21661;50.794;-1.066;2023-06-19T09:04:11;20.00;99.90
35559;DHT22;21661;50.794;-1.066;2023-06-19T09:06:57;20.00;99.90
35559;DHT22;21661;50.794;-1.066;2023-06-19T09:09:25;19.90;99.90
35559;DHT22;21661;50.794;-1.066;2023-06-19T09:17:03;20.10;99.90
35559;DHT22;21661;50.794;-1.066;2023-06-19T09:19:29;20.10;99.90
35559;DHT22;21661;50.794;-1.066;2023-06-19T09:22:05;20.10;99.90
35559;DHT22;21661;50.794;-1.066;2023-06-19T09:24:40;20.00;99.90
35559;DHT22;21661;50.794;-1.066;2023-06-19T09:27:10;20.10;99.90
35559;DHT22;21661;50.794;-1.066;2023-06-19T09:29:40;20.10;99.90
35559;DHT22;21661;50.794;-1.066;2023-06-19T09:34:41;20.10;99.90
35559;DHT22;21661;50.794;-1.066;2023-06-19T09:37:07;20.00;99.90
35559;DHT22;21661;50.794;-1.066;2023-06-19T09:39:34;20.10;99.90
35559;DHT22;21661;50.794;-1.066;2023-06-19T09:42:02;20.20;99.90
35559;DHT22;21661;50.794;-1.066;2023-06-19T09:44:31;20.10;99.90
35559;DHT22;21661;50.794;-1.066;2023-06-19T09:46:59;20.10;99.90
35559;DHT22;21661;50.794;-1.066;2023-06-19T09:49:28;20.10;99.90
35559;DHT22;21661;50.794;-1.066;2023-06-19T09:51:57;20.30;99.90
35559;DHT22;21661;50.794;-1.066;2023-06-19T09:54:24;20.30;99.90
35559;DHT22;21661;50.794;-1.066;2023-06-19T09:56:52;20.50;99.90
35559;DHT22;21661;50.794;-1.066;2023-06-19T09:59:21;20.60;99.90
35559;DHT22;21661;50.794;-1.066;2023-06-19T10:01:48;20.60;99.90
35559;DHT22;21661;50.794;-1.066;2023-06-19T10:04:14;20.60;99.90
35559;DHT22;21661;50.794;-1.066;2023-06-19T10:06:46;20.70;99.90
35559;DHT22;21661;50.794;-1.066;2023-06-19T10:09:14;20.70;99.90
35559;DHT22;21661;50.794;-1.066;2023-06-19T10:11:52;20.60;99.90
35559;DHT22;21661;50.794;-1.066;2023-06-19T10:14:19;20.80;99.90
35559;DHT22;21661;50.794;-1.066;2023-06-19T10:16:45;21.00;99.90
35559;DHT22;21661;50.794;-1.066;2023-06-19T10:19:15;21.10;99.90
35559;DHT22;21661;50.794;-1.066;2023-06-19T10:21:46;21.10;99.90
35559;DHT22;21661;50.794;-1.066;2023-06-19T10:24:17;21.30;99.90
35559;DHT22;21661;50.794;-1.066;2023-06-19T10:26:55;21.40;99.90
35559;DHT22;21661;50.794;-1.066;2023-06-19T10:29:22;21.50;99.90
35559;DHT22;21661;50.794;-1.066;2023-06-19T10:31:49;21.60;99.90
35559;DHT22;21661;50.794;-1.066;2023-06-19T10:34:15;21.50;99.90
35559;DHT22;21661;50.794;-1.066;2023-06-19T10:36:40;21.40;99.90
35559;DHT22;21661;50.794;-1.066;2023-06-19T10:39:06;21.20;99.90
35559;DHT22;21661;50.794;-1.066;2023-06-19T10:41:32;21.10;99.90
35559;DHT22;21661;50.794;-1.066;2023-06-19T10:44:07;21.00;99.90
35559;DHT22;21661;50.794;-1.066;2023-06-19T10:46:39;21.00;99.90
35559;DHT22;21661;50.794;-1.066;2023-06-19T10:49:07;21.00;99.90
35559;DHT22;21661;50.794;-1.066;2023-06-19T10:51:42;21.10;99.90
35559;DHT22;21661;50.794;-1.066;2023-06-19T10:54:09;21.00;99.90
35559;DHT22;21661;50.794;-1.066;2023-06-19T10:56:35;21.00;99.90
35559;DHT22;21661;50.794;-1.066;2023-06-19T10:59:03;21.00;99.90
35559;DHT22;21661;50.794;-1.066;2023-06-19T11:01:36;21.00;99.90
35559;DHT22;21661;50.794;-1.066;2023-06-19T11:04:03;21.00;99.90
35559;DHT22;21661;50.794;-1.066;2023-06-19T11:06:28;21.00;99.90
35559;DHT22;21661;50.794;-1.066;2023-06-19T11:08:55;21.10;99.90
35559;DHT22;21661;50.794;-1.066;2023-06-19T11:11:21;21.00;99.90
35559;DHT22;21661;50.794;-1.066;2023-06-19T11:13:47;20.90;99.90
35559;DHT22;21661;50.794;-1.066;2023-06-19T11:16:14;20.60;99.90
35559;DHT22;21661;50.794;-1.066;2023-06-19T11:18:40;20.50;99.90
35559;DHT22;21661;50.794;-1.066;2023-06-19T11:21:05;20.40;99.90
35559;DHT22;21661;50.794;-1.066;2023-06-19T11:23:31;20.40;99.90
35559;DHT22;21661;50.794;-1.066;2023-06-19T11:26:04;20.40;99.90
35559;DHT22;21661;50.794;-1.066;2023-06-19T11:28:29;20.50;99.90
35559;DHT22;21661;50.794;-1.066;2023-06-19T11:31:02;20.50;99.90
35559;DHT22;21661;50.794;-1.066;2023-06-19T11:33:28;20.60;99.90
35559;DHT22;21661;50.794;-1.066;2023-06-19T11:36:00;20.50;99.90
35559;DHT22;21661;50.794;-1.066;2023-06-19T11:38:26;20.50;99.90
35559;DHT22;21661;50.794;-1.066;2023-06-19T11:40:53;20.40;99.90
35559;DHT22;21661;50.794;-1.066;2023-06-19T11:43:30;20.40;99.90
35559;DHT22;21661;50.794;-1.066;2023-06-19T11:46:04;20.40;99.90
35559;DHT22;21661;50.794;-1.066;2023-06-19T11:48:30;20.50;99.90
35559;DHT22;21661;50.794;-1.066;2023-06-19T11:50:55;20.60;99.90
35559;DHT22;21661;50.794;-1.066;2023-06-19T11:53:22;20.60;99.90
35559;DHT22;21661;50.794;-1.066;2023-06-19T11:55:49;20.60;99.90
35559;DHT22;21661;50.794;-1.066;2023-06-19T11:58:15;20.80;99.90
35559;DHT22;21661;50.794;-1.066;2023-06-19T12:00:41;20.80;99.90
35559;DHT22;21661;50.794;-1.066;2023-06-19T12:03:07;20.80;99.90
35559;DHT22;21661;50.794;-1.066;2023-06-19T12:05:33;20.90;99.90
35559;DHT22;21661;50.794;-1.066;2023-06-19T12:07:59;21.00;99.90
35559;DHT22;21661;50.794;-1.066;2023-06-19T12:10:28;21.10;99.90
35559;DHT22;21661;50.794;-1.066;2023-06-19T12:12:53;21.10;99.90
35559;DHT22;21661;50.794;-1.066;2023-06-19T12:15:19;21.20;99.90
35559;DHT22;21661;50.794;-1.066;2023-06-19T12:17:45;21.30;99.90
35559;DHT22;21661;50.794;-1.066;2023-06-19T12:20:12;21.30;99.90
35559;DHT22;21661;50.794;-1.066;2023-06-19T12:22:39;21.20;99.90
35559;DHT22;21661;50.794;-1.066;2023-06-19T12:25:05;21.20;99.90
35559;DHT22;21661;50.794;-1.066;2023-06-19T12:27:31;21.10;99.90
35559;DHT22;21661;50.794;-1.066;2023-06-19T12:29:56;21.00;99.90
35559;DHT22;21661;50.794;-1.066;2023-06-19T12:32:22;20.90;99.90
35559;DHT22;21661;50.794;-1.066;2023-06-19T12:34:48;20.90;99.90
35559;DHT22;21661;50.794;-1.066;2023-06-19T12:37:16;20.80;99.90
35559;DHT22;21661;50.794;-1.066;2023-06-19T12:39:43;20.70;99.90
35559;DHT22;21661;50.794;-1.066;2023-06-19T12:42:09;20.80;99.90
35559;DHT22;21661;50.794;-1.066;2023-06-19T12:44:37;20.80;99.90
35559;DHT22;21661;50.794;-1.066;2023-06-19T12:47:04;20.90;99.90
35559;DHT22;21661;50.794;-1.066;2023-06-19T12:49:30;20.90;99.90
35559;DHT22;21661;50.794;-1.066;2023-06-19T12:51:56;21.10;99.90
35559;DHT22;21661;50.794;-1.066;2023-06-19T12:54:21;21.20;99.90
35559;DHT22;21661;50.794;-1.066;2023-06-19T12:56:48;21.40;99.90
35559;DHT22;21661;50.794;-1.066;2023-06-19T12:59:14;21.50;99.90
35559;DHT22;21661;50.794;-1.066;2023-06-19T13:01:40;21.50;99.90
35559;DHT22;21661;50.794;-1.066;2023-06-19T13:04:05;21.30;99.90
35559;DHT22;21661;50.794;-1.066;2023-06-19T13:06:31;21.30;99.90
35559;DHT22;21661;50.794;-1.066;2023-06-19T13:08:57;21.30;99.90
35559;DHT22;21661;50.794;-1.066;2023-06-19T13:11:23;21.10;99.90
35559;DHT22;21661;50.794;-1.066;2023-06-19T13:13:48;20.80;99.90
35559;DHT22;21661;50.794;-1.066;2023-06-19T13:16:14;20.70;99.90
35559;DHT22;21661;50.794;-1.066;2023-06-19T13:18:41;20.80;99.90
35559;DHT22;21661;50.794;-1.066;2023-06-19T13:21:07;21.00;99.90
35559;DHT22;21661;50.794;-1.066;2023-06-19T13:23:33;21.00;99.90
35559;DHT22;21661;50.794;-1.066;2023-06-19T13:25:58;21.00;99.90
35559;DHT22;21661;50.794;-1.066;2023-06-19T13:28:24;21.10;99.90
35559;DHT22;21661;50.794;-1.066;2023-06-19T13:30:50;21.30;99.90
35559;DHT22;21661;50.794;-1.066;2023-06-19T13:33:16;21.60;99.90
35559;DHT22;21661;50.794;-1.066;2023-06-19T13:35:42;21.70;99.90
35559;DHT22;21661;50.794;-1.066;2023-06-19T13:38:08;21.90;99.90
35559;DHT22;21661;50.794;-1.066;2023-06-19T13:40:35;21.90;99.90
35559;DHT22;21661;50.794;-1.066;2023-06-19T13:43:00;21.80;99.90
35559;DHT22;21661;50.794;-1.066;2023-06-19T13:45:28;21.80;99.90
35559;DHT22;21661;50.794;-1.066;2023-06-19T13:47:53;21.90;99.90
35559;DHT22;21661;50.794;-1.066;2023-06-19T13:50:19;21.80;99.90
35559;DHT22;21661;50.794;-1.066;2023-06-19T13:52:45;21.80;99.90
35559;DHT22;21661;50.794;-1.066;2023-06-19T13:55:12;21.80;99.90
35559;DHT22;21661;50.794;-1.066;2023-06-19T13:57:40;21.80;99.90
35559;DHT22;21661;50.794;-1.066;2023-06-19T14:00:06;21.70;99.90
35559;DHT22;21661;50.794;-1.066;2023-06-19T14:02:32;21.50;99.90
35559;DHT22;21661;50.794;-1.066;2023-06-19T14:04:58;21.60;99.90
35559;DHT22;21661;50.794;-1.066;2023-06-19T14:07:25;21.70;99.90
35559;DHT22;21661;50.794;-1.066;2023-06-19T14:09:52;21.60;99.90
35559;DHT22;21661;50.794;-1.066;2023-06-19T14:12:19;21.50;99.90
35559;DHT22;21661;50.794;-1.066;2023-06-19T14:14:44;21.40;99.90
35559;DHT22;21661;50.794;-1.066;2023-06-19T14:17:10;21.50;99.90
35559;DHT22;21661;50.794;-1.066;2023-06-19T14:19:35;21.30;99.90
35559;DHT22;21661;50.794;-1.066;2023-06-19T14:22:01;21.20;99.90
35559;DHT22;21661;50.794;-1.066;2023-06-19T14:24:27;21.10;99.90
35559;DHT22;21661;50.794;-1.066;2023-06-19T14:26:53;21.20;99.90
35559;DHT22;21661;50.794;-1.066;2023-06-19T14:29:18;21.20;99.90
35559;DHT22;21661;50.794;-1.066;2023-06-19T14:31:46;21.10;99.90
35559;DHT22;21661;50.794;-1.066;2023-06-19T14:34:11;21.10;99.90
35559;DHT22;21661;50.794;-1.066;2023-06-19T14:36:38;21.10;99.90
35559;DHT22;21661;50.794;-1.066;2023-06-19T14:39:04;20.90;99.90
35559;DHT22;21661;50.794;-1.066;2023-06-19T14:41:29;20.80;99.90
35559;DHT22;21661;50.794;-1.066;2023-06-19T14:43:55;20.90;99.90
35559;DHT22;21661;50.794;-1.066;2023-06-19T14:46:21;21.10;99.90
35559;DHT22;21661;50.794;-1.066;2023-06-19T14:48:46;21.10;99.90
35559;DHT22;21661;50.794;-1.066;2023-06-19T14:51:12;21.00;99.90
35559;DHT22;21661;50.794;-1.066;2023-06-19T14:53:38;20.90;99.90
35559;DHT22;21661;50.794;-1.066;2023-06-19T14:56:03;20.90;99.90
35559;DHT22;21661;50.794;-1.066;2023-06-19T14:58:29;20.90;99.90
35559;DHT22;21661;50.794;-1.066;2023-06-19T15:00:55;21.10;99.90
35559;DHT22;21661;50.794;-1.066;2023-06-19T15:03:20;21.20;99.90
35559;DHT22;21661;50.794;-1.066;2023-06-19T15:05:46;21.20;99.90
35559;DHT22;21661;50.794;-1.066;2023-06-19T15:08:11;21.30;99.90
35559;DHT22;21661;50.794;-1.066;2023-06-19T15:10:37;21.30;99.90
35559;DHT22;21661;50.794;-1.066;2023-06-19T15:13:03;21.30;99.90
35559;DHT22;21661;50.794;-1.066;2023-06-19T15:15:28;21.30;99.90
35559;DHT22;21661;50.794;-1.066;2023-06-19T15:17:54;21.40;99.90
35559;DHT22;21661;50.794;-1.066;2023-06-19T15:20:20;21.40;99.90
35559;DHT22;21661;50.794;-1.066;2023-06-19T15:22:46;21.50;99.90